Time;durP1;ratioP1;P1;durP2;ratioP2;P2;SDS_P1;SDS_P2;PMS_P1;PMS_P2;Temp;Humidity;BMP_temperature;BMP_pressure;BME280_temperature;BME280_humidity;BME280_pressure;Samples;Min_cycle;Max_cycle;Signal;HPM_P1;HPM_P2
2024/01/05 00:00:36;;;;;;;;;;;6.20;99.90;;;5.14;100.00;96678.59;4997591;28;1972;-69
2024/01/05 00:03:03;;;;;;;;;;;6.10;99.90;;;5.12;100.00;96679.53;5000021;28;1375;-69
2024/01/05 00:05:31;;;;;;;;;;;6.00;99.90;;;5.09;100.00;96679.66;5001777;28;1500;-69
2024/01/05 00:07:58;;;;;;;;;;;6.00;99.90;;;5.04;100.00;96679.84;5003316;28;1325;-69
2024/01/05 00:10:24;;;;;;;;;;;6.00;99.90;;;5.14;100.00;96688.88;5002179;28;1425;-70
2024/01/05 00:12:51;;;;;;;;;;;6.00;99.90;;;5.03;100.00;96685.84;4999811;28;1459;-69
2024/01/05 00:15:18;;;;;;;;;;;5.90;99.90;;;5.00;100.00;96689.38;4999291;28;2976;-69
2024/01/05 00:17:46;;;;;;;;;;;6.00;99.90;;;5.00;100.00;96686.81;4998850;28;1332;-69
2024/01/05 00:20:14;;;;;;;;;;;6.00;99.90;;;4.97;100.00;96675.75;4999877;28;1985;-70
2024/01/05 00:22:41;;;;;;;;;;;5.90;99.90;;;5.02;100.00;96673.91;4998094;28;1407;-69
2024/01/05 00:25:08;;;;;;;;;;;5.90;99.90;;;4.91;100.00;96670.84;4997139;28;1362;-69
2024/01/05 00:27:35;;;;;;;;;;;5.90;99.90;;;4.89;100.00;96670.91;4997294;28;2009;-71
2024/01/05 00:30:03;;;;;;;;;;;5.80;99.90;;;5.05;100.00;96672.94;4994594;28;1553;-68
2024/01/05 00:32:30;;;;;;;;;;;5.90;99.90;;;4.96;100.00;96672.34;4998008;28;1322;-68
2024/01/05 00:34:57;;;;;;;;;;;5.90;99.90;;;4.97;100.00;96670.63;4998077;28;1417;-70
2024/01/05 00:37:25;;;;;;;;;;;;;;;4.90;100.00;96674.31;4994997;28;1436;-69
2024/01/05 00:39:51;;;;;;;;;;;5.90;99.90;;;4.82;100.00;96670.28;5000196;28;1882;-69
2024/01/05 00:42:18;;;;;;;;;;;5.80;99.90;;;4.81;100.00;96670.31;5000176;28;2079;-70
2024/01/05 00:44:45;;;;;;;;;;;5.80;99.90;;;4.75;100.00;96675.69;4999496;28;1369;-70
2024/01/05 00:47:12;;;;;;;;;;;5.70;99.90;;;4.76;100.00;96670.47;4999595;28;1412;-70
2024/01/05 00:49:39;;;;;;;;;;;5.70;99.90;;;4.74;100.00;96669.69;5002588;28;1309;-70
2024/01/05 00:52:06;;;;;;;;;;;5.70;99.90;;;4.89;100.00;96664.94;5001347;28;1364;-70
2024/01/05 00:54:33;;;;;;;;;;;5.70;99.90;;;4.94;100.00;96669.00;5001554;28;1446;-70
2024/01/05 00:57:00;;;;;;;;;;;5.80;99.90;;;4.91;100.00;96663.16;5002612;28;5005;-70
2024/01/05 00:59:27;;;;;;;;;;;5.80;99.90;;;4.92;100.00;96662.25;5000920;28;1910;-70
2024/01/05 01:01:54;;;;;;;;;;;5.80;99.90;;;4.79;100.00;96657.53;5001166;28;1369;-70
2024/01/05 01:04:21;;;;;;;;;;;5.80;99.90;;;4.85;100.00;96669.31;5015191;28;1329;-70
2024/01/05 01:06:49;;;;;;;;;;;5.70;99.90;;;4.72;100.00;96663.78;5017398;28;1349;-70
2024/01/05 01:09:16;;;;;;;;;;;5.70;99.90;;;4.85;100.00;96671.06;4998648;28;1097;-70
2024/01/05 01:11:42;;;;;;;;;;;5.70;99.90;;;4.94;100.00;96678.47;5005308;28;1973;-70
2024/01/05 01:14:09;;;;;;;;;;;5.70;99.90;;;4.93;100.00;96671.66;5016627;28;1342;-70
2024/01/05 01:16:36;;;;;;;;;;;5.70;99.90;;;4.96;100.00;96671.53;4999465;28;1589;-70
2024/01/05 01:19:03;;;;;;;;;;;5.80;99.90;;;5.00;100.00;96660.25;5006981;28;2009;-70
2024/01/05 01:21:30;;;;;;;;;;;5.80;99.90;;;5.02;100.00;96669.59;5002809;28;1267;-69
2024/01/05 01:23:57;;;;;;;;;;;5.90;99.90;;;5.09;100.00;96664.25;5015818;28;1906;-70
2024/01/05 01:26:24;;;;;;;;;;;5.90;99.90;;;5.12;100.00;96658.97;5013660;28;1377;-70
2024/01/05 01:28:51;;;;;;;;;;;5.90;99.90;;;5.23;100.00;96659.44;4999568;28;1409;-70
2024/01/05 01:31:18;;;;;;;;;;;6.00;99.90;;;5.29;100.00;96650.63;5014482;28;1491;-70
2024/01/05 01:33:45;;;;;;;;;;;6.10;99.90;;;5.31;100.00;96641.13;5000834;28;1408;-69
2024/01/05 01:36:12;;;;;;;;;;;6.10;99.90;;;5.49;100.00;96639.63;5016017;28;1423;-70
2024/01/05 01:38:39;;;;;;;;;;;6.20;99.90;;;5.50;100.00;96626.69;5017205;28;3070;-70
2024/01/05 01:41:06;;;;;;;;;;;6.30;99.90;;;5.50;100.00;96618.13;4994607;28;1985;-70
2024/01/05 01:43:32;;;;;;;;;;;6.30;99.90;;;5.58;100.00;96619.50;4997771;28;1655;-69
2024/01/05 01:46:00;;;;;;;;;;;6.40;99.90;;;5.59;100.00;96615.22;4999358;28;1372;-71
2024/01/05 01:48:27;;;;;;;;;;;6.40;99.90;;;5.65;100.00;96610.66;5017295;28;1360;-70
2024/01/05 01:50:58;;;;;;;;;;;6.40;99.90;;;5.70;100.00;96605.31;5002924;28;1361;-70
2024/01/05 01:53:27;;;;;;;;;;;6.50;99.90;;;5.72;100.00;96600.94;5001903;28;2310;-70
2024/01/05 01:55:54;;;;;;;;;;;6.50;99.90;;;5.70;100.00;96599.34;5018810;28;1423;-70
2024/01/05 01:58:21;;;;;;;;;;;6.50;99.90;;;5.65;100.00;96592.63;5017809;28;5143;-69
2024/01/05 02:00:49;;;;;;;;;;;6.50;99.90;;;5.64;100.00;96587.56;5004017;28;1907;-70
2024/01/05 02:03:16;;;;;;;;;;;6.50;99.90;;;5.57;100.00;96586.94;5006842;28;1388;-69
2024/01/05 02:05:44;;;;;;;;;;;6.50;99.90;;;5.60;100.00;96578.28;5002431;28;1401;-70
2024/01/05 02:08:11;;;;;;;;;;;6.50;99.90;;;5.74;100.00;96570.84;5020128;28;1147;-70
2024/01/05 02:10:40;;;;;;;;;;;6.50;99.90;;;5.68;100.00;96563.38;5016683;28;1450;-69
2024/01/05 02:13:07;;;;;;;;;;;6.50;99.90;;;5.74;100.00;96552.81;5018823;28;1768;-70
2024/01/05 02:15:34;;;;;;;;;;;6.50;99.90;;;5.85;100.00;96548.06;5003376;28;1424;-70
2024/01/05 02:18:11;;;;;;;;;;;6.50;99.90;;;5.87;100.00;96548.03;5018563;28;1167;-70
2024/01/05 02:20:39;;;;;;;;;;;6.60;99.90;;;5.91;100.00;96541.84;5002458;28;3074;-70
2024/01/05 02:23:12;;;;;;;;;;;6.60;99.90;;;5.94;100.00;96549.47;5000922;28;1757;-70
2024/01/05 02:25:39;;;;;;;;;;;6.60;99.90;;;5.91;100.00;96533.25;5003276;28;1460;-70
2024/01/05 02:28:06;;;;;;;;;;;6.70;99.90;;;5.95;100.00;96534.84;5017587;28;1372;-70
2024/01/05 02:30:33;;;;;;;;;;;6.80;99.90;;;5.94;100.00;96528.00;5001067;28;1254;-70
2024/01/05 02:33:00;;;;;;;;;;;6.80;99.90;;;5.87;100.00;96520.53;4998521;28;1557;-71
2024/01/05 02:35:27;;;;;;;;;;;6.80;99.90;;;6.01;100.00;96516.56;5000166;28;1413;-69
2024/01/05 02:37:54;;;;;;;;;;;6.80;99.90;;;6.04;100.00;96519.88;5001346;28;1520;-70
2024/01/05 02:40:21;;;;;;;;;;;6.80;99.90;;;6.17;100.00;96514.19;5001638;28;1981;-70
2024/01/05 02:42:47;;;;;;;;;;;6.90;99.90;;;6.11;100.00;96507.56;4996571;28;1440;-72
2024/01/05 02:45:20;;;;;;;;;;;6.90;99.90;;;6.15;100.00;96496.22;4998377;28;1431;-70
2024/01/05 02:47:49;;;;;;;;;;;6.90;99.90;;;6.08;100.00;96490.47;4998869;28;1536;-69
2024/01/05 02:50:17;;;;;;;;;;;6.90;99.90;;;6.11;100.00;96489.50;5014772;28;2431;-71
2024/01/05 02:52:44;;;;;;;;;;;6.90;99.90;;;6.15;100.00;96490.25;4999593;28;1463;-70
2024/01/05 02:55:11;;;;;;;;;;;7.00;99.90;;;6.12;100.00;96491.22;5002340;28;1353;-72
2024/01/05 02:57:38;;;;;;;;;;;6.90;99.90;;;6.25;100.00;96484.63;4999927;28;5171;-71
2024/01/05 03:00:06;;;;;;;;;;;7.00;99.90;;;6.18;100.00;96488.38;4997785;28;1985;-69
2024/01/05 03:02:33;;;;;;;;;;;7.00;99.90;;;6.24;100.00;96489.84;4994994;28;3191;-70
2024/01/05 03:05:00;;;;;;;;;;;7.00;99.90;;;6.16;100.00;96479.88;5001440;28;1370;-69
2024/01/05 03:07:27;;;;;;;;;;;7.00;99.90;;;6.19;100.00;96468.59;5017992;28;1305;-70
2024/01/05 03:09:54;;;;;;;;;;;7.00;99.90;;;6.26;100.00;96465.69;5000609;28;1492;-70
2024/01/05 03:12:20;;;;;;;;;;;7.00;99.90;;;6.16;100.00;96456.69;4996154;28;1961;-70
2024/01/05 03:14:47;;;;;;;;;;;7.00;99.90;;;6.15;100.00;96457.56;4999748;28;1308;-70
2024/01/05 03:17:15;;;;;;;;;;;7.00;99.90;;;6.23;100.00;96452.09;5000151;28;1687;-70
2024/01/05 03:19:42;;;;;;;;;;;7.00;99.90;;;6.26;100.00;96449.38;4999953;28;1898;-69
2024/01/05 03:22:09;;;;;;;;;;;7.10;99.90;;;6.26;100.00;96446.81;4998967;28;1335;-70
2024/01/05 03:24:35;;;;;;;;;;;7.10;99.90;;;6.31;100.00;96441.44;4999329;28;1377;-70
2024/01/05 03:27:04;;;;;;;;;;;7.10;99.90;;;6.34;100.00;96431.88;4998160;28;1439;-69
2024/01/05 03:29:31;;;;;;;;;;;7.20;99.90;;;6.38;100.00;96437.69;4997596;28;1294;-70
2024/01/05 03:31:58;;;;;;;;;;;7.10;99.90;;;6.56;100.00;96436.06;4999952;28;1912;-70
2024/01/05 03:34:25;;;;;;;;;;;7.20;99.90;;;6.35;100.00;96443.00;4999313;28;1358;-69
2024/01/05 03:36:52;;;;;;;;;;;7.20;99.90;;;6.38;100.00;96448.84;4998993;28;1344;-69
2024/01/05 03:39:18;;;;;;;;;;;7.10;99.90;;;6.47;100.00;96447.59;4993618;28;1937;-70
2024/01/05 03:41:45;;;;;;;;;;;7.30;99.90;;;6.43;100.00;96443.47;4998981;28;1260;-70
2024/01/05 03:44:20;;;;;;;;;;;7.20;99.90;;;6.45;100.00;96445.13;4997561;28;1621;-71
2024/01/05 03:46:50;;;;;;;;;;;7.20;99.90;;;6.45;100.00;96439.09;4997393;28;1330;-70
2024/01/05 03:49:17;;;;;;;;;;;7.20;99.90;;;6.41;100.00;96434.97;5014117;28;980;-70
2024/01/05 03:51:44;;;;;;;;;;;7.20;99.90;;;6.41;100.00;96447.88;4998133;28;1294;-70
2024/01/05 03:54:11;;;;;;;;;;;7.20;99.90;;;6.19;100.00;96453.97;4996196;28;1446;-70
2024/01/05 03:56:42;;;;;;;;;;;7.10;99.90;;;6.13;100.00;96461.13;4997919;28;5044;-70
2024/01/05 03:59:10;;;;;;;;;;;7.00;99.90;;;6.06;100.00;96463.94;5016471;28;2181;-70
2024/01/05 04:01:46;;;;;;;;;;;7.00;99.90;;;6.06;100.00;96457.97;4999996;28;1930;-70
2024/01/05 04:04:14;;;;;;;;;;;7.00;99.90;;;6.07;100.00;96464.81;4999956;28;1341;-71
2024/01/05 04:06:41;;;;;;;;;;;6.90;99.90;;;6.11;100.00;96457.78;4999706;28;1310;-70
2024/01/05 04:09:11;;;;;;;;;;;7.00;99.90;;;6.15;100.00;96455.00;5016231;28;1947;-70
2024/01/05 04:11:39;;;;;;;;;;;6.90;99.90;;;6.13;100.00;96449.06;4999335;28;2123;-69
2024/01/05 04:14:06;;;;;;;;;;;6.90;99.90;;;6.12;100.00;96452.56;4999611;28;2008;-70
2024/01/05 04:16:33;;;;;;;;;;;7.00;99.90;;;6.18;100.00;96443.72;5003549;28;1302;-70
2024/01/05 04:19:02;;;;;;;;;;;6.90;99.90;;;6.15;100.00;96436.97;5019131;28;1323;-70
2024/01/05 04:21:29;;;;;;;;;;;7.00;99.90;;;6.18;100.00;96446.28;5006391;28;2059;-70
2024/01/05 04:23:57;;;;;;;;;;;7.00;99.90;;;6.28;100.00;96456.16;5002906;28;1434;-69
2024/01/05 04:26:24;;;;;;;;;;;7.00;99.90;;;6.26;100.00;96446.81;4986096;28;1308;-70
2024/01/05 04:28:51;;;;;;;;;;;7.00;99.90;;;6.26;100.00;96446.81;5000076;28;1287;-69
2024/01/05 04:31:18;;;;;;;;;;;7.00;99.90;;;6.16;100.00;96446.38;5020199;28;1296;-70
2024/01/05 04:33:45;;;;;;;;;;;7.00;99.90;;;6.16;100.00;96456.69;5002959;28;1380;-70
2024/01/05 04:36:15;;;;;;;;;;;7.00;99.90;;;6.12;100.00;96451.72;5019206;28;1153;-70
2024/01/05 04:38:43;;;;;;;;;;;7.00;99.90;;;6.12;100.00;96472.34;4999865;28;1485;-71
2024/01/05 04:41:13;;;;;;;;;;;6.90;99.90;;;6.10;100.00;96464.66;5001353;28;1914;-70
2024/01/05 04:43:41;;;;;;;;;;;6.90;99.90;;;6.08;100.00;96469.03;5000950;28;1407;-70
2024/01/05 04:46:08;;;;;;;;;;;6.90;99.90;;;6.08;100.00;96481.94;4999867;28;1267;-69
2024/01/05 04:48:35;;;;;;;;;;;6.80;99.90;;;5.97;100.00;96481.53;5018236;28;1474;-70
2024/01/05 04:51:02;;;;;;;;;;;6.80;99.90;;;5.93;100.00;96485.09;5016511;28;1402;-70
2024/01/05 04:53:29;;;;;;;;;;;6.80;99.90;;;5.83;100.00;96484.66;5003355;28;1760;-70
2024/01/05 04:55:56;;;;;;;;;;;6.70;99.90;;;5.83;100.00;96489.81;5002046;28;2072;-70
2024/01/05 04:58:24;;;;;;;;;;;6.70;99.90;;;5.83;100.00;96497.53;5020789;28;5305;-70
2024/01/05 05:00:51;;;;;;;;;;;6.60;99.90;;;5.82;100.00;96488.97;5002830;28;1898;-69
2024/01/05 05:03:18;;;;;;;;;;;6.70;99.90;;;5.82;100.00;96504.44;5005702;28;1465;-70
2024/01/05 05:05:45;;;;;;;;;;;6.60;99.90;;;5.74;100.00;96493.59;5001826;28;1379;-70
2024/01/05 05:08:13;;;;;;;;;;;6.60;99.90;;;5.84;100.00;96499.22;5000882;28;1632;-70
2024/01/05 05:10:40;;;;;;;;;;;6.60;99.90;;;5.79;100.00;96503.69;5002304;28;3081;-70
2024/01/05 05:13:07;;;;;;;;;;;6.60;99.90;;;5.78;100.00;96496.88;5018615;28;1509;-71
2024/01/05 05:15:34;;;;;;;;;;;6.60;99.90;;;5.94;100.00;96507.41;5001409;28;1350;-71
2024/01/05 05:18:01;;;;;;;;;;;6.60;99.90;;;5.90;100.00;96511.00;5004652;28;1671;-70
2024/01/05 05:20:28;;;;;;;;;;;6.60;99.90;;;5.84;100.00;96512.09;4998069;28;1926;-71
2024/01/05 05:22:55;;;;;;;;;;;6.70;99.90;;;5.83;100.00;96521.53;4999336;28;2055;-71
2024/01/05 05:25:22;;;;;;;;;;;6.70;99.90;;;5.80;100.00;96526.00;5000776;28;1435;-71
2024/01/05 05:27:49;;;;;;;;;;;6.60;99.90;;;5.84;100.00;96530.13;5004276;28;1431;-71
2024/01/05 05:30:17;;;;;;;;;;;6.60;99.90;;;5.79;100.00;96529.44;5018042;28;1417;-71
2024/01/05 05:32:47;;;;;;;;;;;6.70;99.90;;;5.80;100.00;96526.00;5016945;28;1640;-70
2024/01/05 05:35:14;;;;;;;;;;;6.60;99.90;;;5.80;100.00;96534.56;5000534;28;1639;-71
2024/01/05 05:37:40;;;;;;;;;;;6.60;99.90;;;5.75;100.00;96533.06;5002323;28;2036;-71
2024/01/05 05:40:09;;;;;;;;;;;6.60;99.90;;;5.79;100.00;96534.59;5012225;28;1990;-71
2024/01/05 05:42:38;;;;;;;;;;;6.50;99.90;;;5.80;100.00;96541.44;5000273;28;1692;-71
2024/01/05 05:45:06;;;;;;;;;;;6.60;99.90;;;5.80;100.00;96544.84;5014007;28;1058;-72
2024/01/05 05:47:33;;;;;;;;;;;6.60;99.90;;;5.83;100.00;96546.47;4997260;28;1448;-71
2024/01/05 05:50:00;;;;;;;;;;;6.60;99.90;;;5.81;100.00;96559.38;5001110;28;1462;-71
2024/01/05 05:52:27;;;;;;;;;;;6.60;99.90;;;5.86;100.00;96554.06;5000511;28;3470;-71
2024/01/05 05:54:56;;;;;;;;;;;6.60;99.90;;;5.81;100.00;96561.13;4996817;28;965;-71
2024/01/05 05:57:23;;;;;;;;;;;6.60;99.90;;;5.93;100.00;96562.38;5017164;28;5250;-71
2024/01/05 05:59:51;;;;;;;;;;;6.60;99.90;;;5.82;100.00;96552.53;5001240;28;1026;-70
2024/01/05 06:02:18;;;;;;;;;;;6.60;99.90;;;5.77;100.00;96557.84;5001722;28;1931;-70
2024/01/05 06:04:45;;;;;;;;;;;6.70;99.90;;;5.84;100.00;96556.72;5000748;28;1335;-71
2024/01/05 06:07:12;;;;;;;;;;;6.70;99.90;;;5.79;100.00;96561.22;5002197;28;1268;-72
2024/01/05 06:09:39;;;;;;;;;;;6.70;99.90;;;5.85;100.00;96567.84;4996662;28;1659;-71
2024/01/05 06:12:06;;;;;;;;;;;6.60;99.90;;;5.87;100.00;96553.16;4997355;28;1269;-70
2024/01/05 06:14:33;;;;;;;;;;;6.70;99.90;;;5.82;100.00;96549.94;5000113;28;1436;-70
2024/01/05 06:17:00;;;;;;;;;;;6.70;99.90;;;5.83;100.00;96559.34;5003629;28;1313;-71
2024/01/05 06:19:27;;;;;;;;;;;6.70;99.90;;;5.87;100.00;96559.16;5001163;28;2039;-71
2024/01/05 06:21:54;;;;;;;;;;;6.70;99.90;;;5.90;100.00;96560.75;5014795;28;1906;-71
2024/01/05 06:24:21;;;;;;;;;;;6.70;99.90;;;5.93;100.00;96555.50;5001711;28;1304;-71
2024/01/05 06:26:48;;;;;;;;;;;6.70;99.90;;;5.90;100.00;96547.06;4997007;28;1288;-71
2024/01/05 06:29:14;;;;;;;;;;;6.70;99.90;;;5.93;100.00;96544.34;4995705;28;1298;-71
2024/01/05 06:31:41;;;;;;;;;;;6.80;99.90;;;5.93;100.00;96544.34;4999168;28;1296;-71
2024/01/05 06:34:09;;;;;;;;;;;6.80;99.90;;;6.01;100.00;96545.75;4996701;28;3106;-71
2024/01/05 06:36:36;;;;;;;;;;;6.70;99.90;;;6.01;100.00;96540.59;4998672;28;1096;-70
2024/01/05 06:39:03;;;;;;;;;;;6.80;99.90;;;6.07;100.00;96532.63;5001919;28;1268;-71
2024/01/05 06:41:30;;;;;;;;;;;6.90;99.90;;;6.02;100.00;96529.41;5000409;28;1985;-71
2024/01/05 06:43:57;;;;;;;;;;;6.80;99.90;;;6.12;100.00;96529.84;4997982;28;1280;-71
2024/01/05 06:46:24;;;;;;;;;;;6.80;99.90;;;6.05;100.00;96521.53;5003641;28;1278;-71
2024/01/05 06:48:51;;;;;;;;;;;6.80;99.90;;;6.04;100.00;96509.56;5002483;28;2027;-70
2024/01/05 06:51:18;;;;;;;;;;;6.80;99.90;;;6.09;100.00;96524.84;4999770;28;1068;-70
2024/01/05 06:53:46;;;;;;;;;;;6.90;99.90;;;6.24;100.00;96525.91;5000124;28;1344;-71
2024/01/05 06:56:12;;;;;;;;;;;6.90;99.90;;;6.20;100.00;96524.38;4999416;28;1251;-71
2024/01/05 06:58:39;;;;;;;;;;;6.80;99.90;;;6.06;100.00;96514.63;4999518;28;5119;-70
2024/01/05 07:01:06;;;;;;;;;;;6.90;99.90;;;6.10;100.00;96511.03;5015910;28;1960;-71
2024/01/05 07:03:33;;;;;;;;;;;6.80;99.90;;;6.09;100.00;96514.53;5014368;28;1312;-71
2024/01/05 07:06:01;;;;;;;;;;;6.80;99.90;;;6.06;100.00;96524.94;5015264;28;1061;-71
2024/01/05 07:08:28;;;;;;;;;;;6.80;99.90;;;5.98;100.00;96504.66;5013859;28;1290;-70
2024/01/05 07:10:55;;;;;;;;;;;6.80;99.90;;;5.98;100.00;96519.28;5002954;28;1607;-71
2024/01/05 07:13:22;;;;;;;;;;;6.80;99.90;;;6.02;100.00;96523.38;5002347;28;1347;-71
2024/01/05 07:15:49;;;;;;;;;;;6.80;99.90;;;5.94;100.00;96517.72;5000171;28;2960;-71
2024/01/05 07:18:16;;;;;;;;;;;6.80;99.90;;;6.07;100.00;96534.38;4997399;28;1319;-71
2024/01/05 07:20:43;;;;;;;;;;;6.80;99.90;;;5.94;100.00;96522.84;5000629;28;1986;-71
2024/01/05 07:23:10;;;;;;;;;;;6.80;99.90;;;5.97;100.00;96531.31;5000221;28;1280;-71
2024/01/05 07:25:37;;;;;;;;;;;6.70;99.90;;;6.03;100.00;96537.97;5001023;28;1801;-70
2024/01/05 07:28:04;;;;;;;;;;;6.80;99.90;;;6.04;100.00;96527.59;4996790;28;1399;-70
2024/01/05 07:30:31;;;;;;;;;;;6.80;99.90;;;5.95;100.00;96520.22;4997945;28;2128;-70
2024/01/05 07:32:58;;;;;;;;;;;6.80;99.90;;;5.94;100.00;96521.13;4998641;28;1402;-70
2024/01/05 07:35:26;;;;;;;;;;;6.70;99.90;;;5.97;100.00;96515.84;4996047;28;1112;-70
2024/01/05 07:37:56;;;;;;;;;;;6.70;99.90;;;5.86;100.00;96516.28;4999340;28;1069;-70
2024/01/05 07:40:23;;;;;;;;;;;6.70;99.90;;;6.09;100.00;96535.16;4995376;28;1988;-70
2024/01/05 07:42:50;;;;;;;;;;;6.70;99.90;;;5.94;100.00;96518.56;4997164;28;1657;-71
2024/01/05 07:45:16;;;;;;;;;;;6.70;99.90;;;5.98;100.00;96521.88;4995804;28;2095;-70
2024/01/05 07:47:43;;;;;;;;;;;6.70;99.90;;;6.07;100.00;96512.00;5015723;28;1573;-71
2024/01/05 07:50:10;;;;;;;;;;;6.80;99.90;;;6.07;100.00;96518.91;5015872;28;1709;-71
2024/01/05 07:52:37;;;;;;;;;;;6.80;99.90;;;6.06;100.00;96509.50;5001255;28;1457;-71
2024/01/05 07:55:04;;;;;;;;;;;6.80;99.90;;;5.97;100.00;96512.44;5002719;28;1038;-70
2024/01/05 07:57:31;;;;;;;;;;;6.70;99.90;;;5.97;100.00;96504.72;5004860;28;5087;-70
2024/01/05 07:59:59;;;;;;;;;;;6.70;99.90;;;5.92;100.00;96498.91;5002291;28;1679;-70
2024/01/05 08:02:26;;;;;;;;;;;6.70;99.90;;;6.00;100.00;96505.44;5000518;28;1887;-70
2024/01/05 08:04:53;;;;;;;;;;;6.70;99.90;;;6.03;100.00;96489.03;5003222;28;1385;-71
2024/01/05 08:07:20;;;;;;;;;;;6.70;99.90;;;5.82;100.00;96503.59;5003322;28;1357;-69
2024/01/05 08:09:52;;;;;;;;;;;6.60;99.90;;;5.93;100.00;96511.72;5000851;28;1306;-71
2024/01/05 08:12:20;;;;;;;;;;;6.60;99.90;;;5.95;100.00;96503.94;5002932;28;2112;-71
2024/01/05 08:14:47;;;;;;;;;;;6.60;99.90;;;5.87;100.00;96507.66;5004014;28;1307;-72
2024/01/05 08:17:14;;;;;;;;;;;6.60;99.90;;;5.99;100.00;96501.19;5006353;28;1432;-70
2024/01/05 08:19:41;;;;;;;;;;;6.70;99.90;;;5.93;100.00;96503.13;5004834;28;1091;-70
2024/01/05 08:22:08;;;;;;;;;;;6.70;99.90;;;6.08;100.00;96510.25;4999950;28;1910;-70
2024/01/05 08:24:37;;;;;;;;;;;6.80;99.90;;;6.13;100.00;96498.03;5002235;28;1142;-71
2024/01/05 08:27:04;;;;;;;;;;;6.70;99.90;;;6.00;100.00;96500.28;5000348;28;2024;-70
2024/01/05 08:29:34;;;;;;;;;;;6.80;99.90;;;6.04;100.00;96494.13;5001602;28;1685;-71
2024/01/05 08:32:02;;;;;;;;;;;6.70;99.90;;;6.00;100.00;96481.44;5000660;28;1389;-71
2024/01/05 08:34:29;;;;;;;;;;;6.70;99.90;;;5.93;100.00;96495.41;5001467;28;1578;-71
2024/01/05 08:36:56;;;;;;;;;;;6.70;99.90;;;6.08;100.00;96497.38;5001809;28;1369;-72
2024/01/05 08:39:23;;;;;;;;;;;6.70;99.90;;;6.13;100.00;96489.47;5001735;28;2037;-71
2024/01/05 08:41:51;;;;;;;;;;;6.70;99.90;;;6.08;100.00;96487.91;4999099;28;3396;-71
2024/01/05 08:44:20;;;;;;;;;;;6.70;99.90;;;5.93;100.00;96475.66;5002849;28;1389;-70
2024/01/05 08:46:47;;;;;;;;;;;6.80;99.90;;;6.01;100.00;96462.47;5019807;28;1516;-71
2024/01/05 08:49:14;;;;;;;;;;;6.80;99.90;;;6.12;100.00;96488.63;5000812;28;1435;-71
2024/01/05 08:51:44;;;;;;;;;;;6.80;99.90;;;6.17;100.00;96480.72;5001014;28;1412;-71
2024/01/05 08:54:11;;;;;;;;;;;6.70;99.90;;;6.10;100.00;96481.88;5001645;28;2156;-70
2024/01/05 08:56:38;;;;;;;;;;;6.80;99.90;;;6.04;100.00;96463.22;4986198;28;5071;-71
2024/01/05 08:59:05;;;;;;;;;;;6.80;99.90;;;6.12;100.00;96483.47;5001878;28;1440;-70
2024/01/05 09:01:32;;;;;;;;;;;6.80;99.90;;;6.08;100.00;96495.63;5004823;28;1993;-70
2024/01/05 09:04:02;;;;;;;;;;;6.80;99.90;;;6.12;100.00;96491.22;5000600;28;1637;-71
2024/01/05 09:06:31;;;;;;;;;;;6.80;99.90;;;6.18;100.00;96488.38;5017904;28;1407;-71
2024/01/05 09:08:59;;;;;;;;;;;6.80;99.90;;;6.15;100.00;96488.50;5000028;28;1990;-70
2024/01/05 09:11:26;;;;;;;;;;;6.80;99.90;;;6.05;100.00;96493.19;4999394;28;1385;-70
2024/01/05 09:13:52;;;;;;;;;;;6.80;99.90;;;6.16;100.00;96507.34;5005176;28;1390;-71
2024/01/05 09:16:19;;;;;;;;;;;6.70;99.90;;;6.10;100.00;96507.63;5001498;28;1238;-70
2024/01/05 09:18:46;;;;;;;;;;;6.70;99.90;;;6.09;100.00;96504.22;5014804;28;1401;-70
2024/01/05 09:21:14;;;;;;;;;;;6.70;99.90;;;6.08;100.00;96502.53;5001821;28;1910;-71
2024/01/05 09:23:41;;;;;;;;;;;6.70;99.90;;;6.09;100.00;96514.53;5001047;28;3277;-70
2024/01/05 09:26:14;;;;;;;;;;;6.70;99.90;;;6.07;100.00;96529.22;5000627;28;1629;-70
2024/01/05 09:28:42;;;;;;;;;;;6.80;99.90;;;5.98;100.00;96520.13;4997469;28;6487;-71
2024/01/05 09:31:12;;;;;;;;;;;6.80;99.90;;;6.11;100.00;96511.88;4996715;28;1680;-70
2024/01/05 09:33:39;;;;;;;;;;;6.80;99.90;;;6.09;100.00;96532.56;4999573;28;1484;-71
2024/01/05 09:36:07;;;;;;;;;;;6.80;99.90;;;6.17;100.00;96527.91;4999990;28;1401;-71
2024/01/05 09:38:35;;;;;;;;;;;6.90;99.90;;;6.14;100.00;96529.81;4999703;28;1349;-71
2024/01/05 09:41:02;;;;;;;;;;;6.90;99.90;;;6.15;100.00;96546.91;4983870;28;1907;-71
2024/01/05 09:43:29;;;;;;;;;;;6.90;99.90;;;6.28;100.00;96536.03;5017315;28;2127;-70
2024/01/05 09:45:56;;;;;;;;;;;6.90;99.90;;;6.24;100.00;96534.47;5000226;28;1350;-71
2024/01/05 09:48:24;;;;;;;;;;;6.90;99.90;;;6.30;100.00;96541.13;5001134;28;1346;-72
2024/01/05 09:51:03;;;;;;;;;;;6.90;99.90;;;6.28;100.00;96546.34;4999877;28;1640;-70
2024/01/05 09:53:31;;;;;;;;;;;7.00;99.90;;;6.43;100.00;96542.28;4997866;28;1471;-71
2024/01/05 09:56:00;;;;;;;;;;;7.00;99.90;;;6.35;100.00;96540.94;5016642;28;1065;-71
2024/01/05 09:58:27;;;;;;;;;;;7.10;99.90;;;6.50;100.00;96542.88;4998589;28;1605;-70
2024/01/05 10:00:56;;;;;;;;;;;7.10;99.90;;;6.51;100.00;96541.94;5016763;28;1360;-71
2024/01/05 10:03:26;;;;;;;;;;;7.10;99.90;;;6.59;100.00;96544.19;5000877;28;1942;-72
2024/01/05 10:05:53;;;;;;;;;;;7.00;99.90;;;6.53;100.00;96531.59;5015278;28;1494;-71
2024/01/05 10:08:23;;;;;;;;;;;7.10;99.90;;;6.52;100.00;96524.75;4998671;28;1408;-71
2024/01/05 10:10:56;;;;;;;;;;;7.10;99.90;;;6.60;100.00;96538.16;5013877;28;3042;-71
2024/01/05 10:13:23;;;;;;;;;;;7.20;99.90;;;6.60;100.00;96536.41;5001978;28;2563;-71
2024/01/05 10:16:00;;;;;;;;;;;7.10;99.90;;;6.62;100.00;96518.28;5014458;28;2618;-71
2024/01/05 10:18:30;;;;;;;;;;;7.10;99.90;;;6.69;100.00;96537.75;5001387;28;1432;-70
2024/01/05 10:21:08;;;;;;;;;;;7.20;99.90;;;6.65;100.00;96534.44;5000673;28;1629;-71
2024/01/05 10:23:42;;;;;;;;;;;7.30;99.90;;;6.80;100.00;96525.22;4999872;28;1447;-71
2024/01/05 10:26:19;;;;;;;;;;;7.40;99.90;;;6.62;100.00;96534.59;5000625;28;1498;-71
2024/01/05 10:28:49;;;;;;;;;;;7.40;99.90;;;6.82;100.00;96535.44;4999869;28;1185;-71
2024/01/05 10:31:19;;;;;;;;;;;7.30;99.90;;;6.80;100.00;96522.63;5001268;28;2036;-71
2024/01/05 10:33:55;;;;;;;;;;;7.30;99.90;;;6.84;100.00;96521.59;5000936;28;1454;-71
2024/01/05 10:36:24;;;;;;;;;;;7.30;99.90;;;6.63;100.00;96517.38;5002257;28;1381;-71
2024/01/05 10:38:51;;;;;;;;;;;7.30;99.90;;;6.70;100.00;96521.34;5013581;28;1383;-71
2024/01/05 10:41:20;;;;;;;;;;;7.30;99.90;;;6.63;100.00;96530.28;5000842;28;1906;-71
2024/01/05 10:43:48;;;;;;;;;;;7.30;99.90;;;6.82;100.00;96528.56;5003428;28;1440;-71
2024/01/05 10:46:17;;;;;;;;;;;7.30;99.90;;;6.58;100.00;96520.16;4999671;28;2485;-71
2024/01/05 10:48:44;;;;;;;;;;;7.40;99.90;;;6.61;100.00;96529.50;4998576;28;1320;-70
2024/01/05 10:51:12;;;;;;;;;;;7.40;99.90;;;6.71;100.00;96530.78;4997681;28;1393;-70
2024/01/05 10:53:39;;;;;;;;;;;7.40;99.90;;;6.66;100.00;96527.53;5018021;28;1450;-70
2024/01/05 10:56:06;;;;;;;;;;;7.30;99.90;;;6.78;100.00;96531.34;5013853;28;1317;-70
2024/01/05 10:58:33;;;;;;;;;;;7.30;99.90;;;6.69;100.00;96541.16;4998311;28;3119;-69
2024/01/05 11:01:00;;;;;;;;;;;7.40;99.90;;;6.75;100.00;96531.47;4999702;28;2436;-71
2024/01/05 11:03:36;;;;;;;;;;;7.40;99.90;;;6.70;100.00;96531.66;5012427;28;1910;-71
2024/01/05 11:06:08;;;;;;;;;;;7.40;99.90;;;6.98;100.00;96525.28;5015506;28;1401;-71
2024/01/05 11:08:57;;;;;;;;;;;7.40;99.90;;;6.93;100.00;96506.59;4997256;28;1566;-71
2024/01/05 11:11:39;;;;;;;;;;;7.50;99.90;;;6.88;100.00;96536.00;4998986;28;1477;-71
2024/01/05 11:14:15;;;;;;;;;;;7.50;99.90;;;7.10;100.00;96497.19;4998626;28;1503;-71
2024/01/05 11:17:00;;;;;;;;;;;7.50;99.90;;;7.03;100.00;96494.97;5001925;28;2195;-70
2024/01/05 11:19:49;;;;;;;;;;;7.70;99.90;;;7.39;100.00;96507.06;5014959;28;1372;-71
2024/01/05 11:22:28;;;;;;;;;;;7.60;99.90;;;7.22;100.00;96505.28;5013266;28;1972;-72
2024/01/05 11:24:57;;;;;;;;;;;7.70;99.90;;;7.29;100.00;96484.25;4987347;28;1739;-70
2024/01/05 11:27:32;;;;;;;;;;;7.80;99.90;;;7.20;100.00;96478.69;5001093;28;1376;-71
2024/01/05 11:30:01;;;;;;;;;;;7.90;99.90;;;7.38;100.00;96479.59;4972606;28;1999;-70
2024/01/05 11:32:32;;;;;;;;;;;7.90;99.90;;;7.43;100.00;96475.84;5004975;28;1820;-71
2024/01/05 11:35:04;;;;;;;;;;;7.80;99.90;;;7.53;100.00;96466.78;4989827;28;1087;-71
2024/01/05 11:37:31;;;;;;;;;;;8.00;99.90;;;7.24;100.00;96457.84;4987857;28;3449;-71